createdAt,value
2022-08-29T00:01:55.168Z,101621.34
2022-08-29T00:04:26.708Z,101625.00
2022-08-29T00:06:55.353Z,101640.97
2022-08-29T00:09:23.139Z,101642.50
2022-08-29T00:11:52.515Z,101628.06
2022-08-29T00:14:23.334Z,101640.03
2022-08-29T00:16:52.063Z,101645.56
2022-08-29T00:19:20.355Z,101649.84
2022-08-29T00:21:48.283Z,101656.31
2022-08-29T00:24:17.063Z,101657.09
2022-08-29T00:26:44.880Z,101662.56
2022-08-29T00:29:15.097Z,101664.38
2022-08-29T00:31:43.126Z,101672.38
2022-08-29T00:34:11.145Z,101671.53
2022-08-29T00:36:38.983Z,101684.03
2022-08-29T00:39:09.170Z,101695.41
2022-08-29T00:41:37.388Z,101703.41
2022-08-29T00:44:06.265Z,101697.13
2022-08-29T00:46:52.080Z,101695.03
2022-08-29T00:49:31.700Z,101692.34
2022-08-29T00:52:04.561Z,101685.47
2022-08-29T00:54:33.576Z,101685.72
2022-08-29T00:57:01.762Z,101698.31
2022-08-29T00:59:34.324Z,101698.31
2022-08-29T01:02:04.958Z,101684.34
2022-08-29T01:04:33.983Z,101696.00
2022-08-29T01:07:02.179Z,101689.81
2022-08-29T01:09:30.858Z,101697.13
2022-08-29T01:12:16.617Z,101690.94
2022-08-29T01:14:48.053Z,101704.16
2022-08-29T01:17:21.669Z,101704.41
2022-08-29T01:19:55.840Z,101700.75
2022-08-29T01:22:40.426Z,101713.38
2022-08-29T01:25:12.856Z,101719.13
2022-08-29T01:27:45.152Z,101723.59
2022-08-29T01:30:15.210Z,101725.50
2022-08-29T01:32:43.623Z,101736.25
2022-08-29T01:35:11.678Z,101742.66
2022-08-29T01:37:42.232Z,101768.34
2022-08-29T01:40:12.990Z,101788.41
2022-08-29T01:42:41.108Z,101817.31
2022-08-29T01:45:10.290Z,101895.56
2022-08-29T01:47:39.298Z,101913.06
2022-08-29T01:50:10.679Z,101912.84
2022-08-29T01:52:38.926Z,101909.34
2022-08-29T01:55:07.649Z,101904.19
2022-08-29T01:57:39.510Z,101896.25
2022-08-29T02:00:10.564Z,101893.50
2022-08-29T02:02:40.314Z,101885.44
2022-08-29T02:05:09.735Z,101874.81
2022-08-29T02:07:37.697Z,101890.16
2022-08-29T02:10:08.122Z,101896.47
2022-08-29T02:12:36.661Z,101894.94
2022-08-29T02:15:07.602Z,101899.25
2022-08-29T02:17:35.620Z,101899.25
2022-08-29T02:20:06.651Z,101898.50
2022-08-29T02:22:35.912Z,101892.81
2022-08-29T02:25:25.316Z,101891.00
2022-08-29T02:27:53.335Z,101891.34
2022-08-29T02:30:22.844Z,101884.00
2022-08-29T02:32:51.005Z,101896.69
2022-08-29T02:35:19.547Z,101889.84
2022-08-29T02:37:47.336Z,101889.84
2022-08-29T02:40:15.503Z,101900.34
2022-08-29T02:42:43.473Z,101890.53
2022-08-29T02:45:12.136Z,101890.72
2022-08-29T02:47:43.044Z,101889.63
2022-08-29T02:50:11.908Z,101887.00
2022-08-29T02:52:42.449Z,101894.03
2022-08-29T02:55:15.263Z,101892.13
2022-08-29T02:57:48.927Z,101896.53
2022-08-29T03:00:23.194Z,101894.44
2022-08-29T03:02:53.255Z,101894.56
2022-08-29T03:05:23.927Z,101897.72
2022-08-29T03:07:52.556Z,101896.41
2022-08-29T03:10:20.715Z,101895.44
2022-08-29T03:12:49.264Z,101893.38
2022-08-29T03:15:17.989Z,101894.78
2022-08-29T03:17:46.107Z,101903.50
2022-08-29T03:20:18.521Z,101910.56
2022-08-29T03:22:47.401Z,101905.00
2022-08-29T03:25:17.446Z,101906.97
2022-08-29T03:27:45.387Z,101901.63
2022-08-29T03:30:15.753Z,101894.03
2022-08-29T03:32:44.161Z,101900.75
2022-08-29T03:35:13.569Z,101900.81
2022-08-29T03:37:42.782Z,101889.09
2022-08-29T03:40:12.988Z,101897.22
2022-08-29T03:42:42.825Z,101889.09
2022-08-29T03:45:15.417Z,101880.34
2022-08-29T03:47:43.557Z,101874.75
2022-08-29T03:50:12.054Z,101881.63
2022-08-29T03:52:44.549Z,101871.03
2022-08-29T03:55:14.201Z,101866.03
2022-08-29T03:57:43.155Z,101867.72
2022-08-29T04:00:16.122Z,101857.03
2022-08-29T04:02:47.948Z,101863.25
2022-08-29T04:05:16.973Z,101860.75
2022-08-29T04:07:50.273Z,101851.94
2022-08-29T04:10:22.390Z,101849.28
2022-08-29T04:12:54.530Z,101848.34
2022-08-29T04:15:23.821Z,101836.06
2022-08-29T04:17:54.479Z,101839.81
2022-08-29T04:20:25.339Z,101841.25
2022-08-29T04:22:56.351Z,101837.78
2022-08-29T04:25:25.878Z,101834.25
2022-08-29T04:27:54.687Z,101847.81
2022-08-29T04:30:24.992Z,101841.09
2022-08-29T04:32:52.809Z,101840.53
2022-08-29T04:35:21.014Z,101842.72
2022-08-29T04:37:49.290Z,101837.47
2022-08-29T04:40:21.327Z,101830.50
2022-08-29T04:42:51.036Z,101831.75
2022-08-29T04:45:26.176Z,101820.63
2022-08-29T04:47:54.649Z,101825.31
2022-08-29T04:50:24.784Z,101813.84
2022-08-29T04:52:53.348Z,101805.31
2022-08-29T04:55:25.448Z,101801.81
2022-08-29T04:57:57.028Z,101796.56
2022-08-29T05:00:36.639Z,101786.47
2022-08-29T05:03:08.287Z,101793.53
2022-08-29T05:05:36.696Z,101793.66
2022-08-29T05:08:05.167Z,101797.19
2022-08-29T05:10:34.595Z,101805.78
2022-08-29T05:13:02.541Z,101794.25
2022-08-29T05:15:31.520Z,101796.78
2022-08-29T05:17:59.395Z,101801.72
2022-08-29T05:20:27.608Z,101798.13
2022-08-29T05:22:55.464Z,101800.84
2022-08-29T05:25:23.899Z,101804.56
2022-08-29T05:28:16.288Z,101815.94
2022-08-29T05:30:44.499Z,101793.19
2022-08-29T05:33:12.477Z,101817.16
2022-08-29T05:35:42.363Z,101818.06
2022-08-29T05:38:11.763Z,101821.94
2022-08-29T05:40:40.820Z,101829.28
2022-08-29T05:43:11.684Z,101835.00
2022-08-29T05:45:41.800Z,101830.34
2022-08-29T05:48:11.919Z,101846.00
2022-08-29T05:50:41.860Z,101844.81
2022-08-29T05:53:10.689Z,101830.84
2022-08-29T05:55:41.848Z,101831.28
2022-08-29T05:58:12.079Z,101821.94
2022-08-29T06:00:40.925Z,101823.63
2022-08-29T06:03:09.153Z,101823.25
2022-08-29T06:05:37.743Z,101810.47
2022-08-29T06:08:07.369Z,101797.81
2022-08-29T06:10:35.454Z,101780.84
2022-08-29T06:13:03.379Z,101764.94
2022-08-29T06:15:33.258Z,101760.25
2022-08-29T06:18:02.232Z,101759.22
2022-08-29T06:20:30.180Z,101741.78
2022-08-29T06:23:03.780Z,101725.91
2022-08-29T06:25:40.083Z,101709.88
2022-08-29T06:28:08.656Z,101697.94
2022-08-29T06:30:39.334Z,101681.78
2022-08-29T06:33:07.380Z,101691.03
2022-08-29T06:35:35.394Z,101682.53
2022-08-29T06:38:03.285Z,101674.13
2022-08-29T06:40:31.203Z,101686.97
2022-08-29T06:42:59.745Z,101662.66
2022-08-29T06:45:28.005Z,101688.53
2022-08-29T06:47:57.356Z,101704.97
2022-08-29T06:50:25.438Z,101715.69
2022-08-29T06:52:55.607Z,101750.66
2022-08-29T06:55:24.079Z,101749.25
2022-08-29T06:57:52.308Z,101747.63
2022-08-29T07:00:22.368Z,101753.25
2022-08-29T07:02:53.127Z,101753.72
2022-08-29T07:05:23.584Z,101747.38
2022-08-29T07:07:53.423Z,101764.84
2022-08-29T07:10:23.003Z,101779.53
2022-08-29T07:12:51.985Z,101774.22
2022-08-29T07:15:23.323Z,101781.41
2022-08-29T07:17:59.235Z,101769.03
2022-08-29T07:20:29.559Z,101749.47
2022-08-29T07:22:58.134Z,101715.16
2022-08-29T07:25:27.753Z,101718.22
2022-08-29T07:27:56.917Z,101719.16
2022-08-29T07:30:26.679Z,101738.66
2022-08-29T07:33:00.405Z,101746.28
2022-08-29T07:35:33.808Z,101712.91
2022-08-29T07:38:02.643Z,101698.41
2022-08-29T07:40:34.548Z,101682.09
2022-08-29T07:43:02.667Z,101687.72
2022-08-29T07:45:30.564Z,101673.75
2022-08-29T07:48:02.778Z,101665.34
2022-08-29T07:50:37.039Z,101628.13
2022-08-29T07:53:05.421Z,101634.06
2022-08-29T07:55:33.226Z,101655.25
2022-08-29T07:58:03.990Z,101656.81
2022-08-29T08:00:32.088Z,101689.44
2022-08-29T08:03:01.068Z,101709.75
2022-08-29T08:05:29.382Z,101730.38
2022-08-29T08:08:02.156Z,102171.75
2022-08-29T08:10:33.232Z,102272.00
2022-08-29T08:13:03.514Z,102346.56
2022-08-29T08:15:31.384Z,102238.00
2022-08-29T08:18:00.295Z,102123.88
2022-08-29T08:20:28.481Z,102074.88
2022-08-29T08:22:58.628Z,102111.38
2022-08-29T08:25:27.063Z,102146.16
2022-08-29T08:27:55.154Z,102174.44
2022-08-29T08:30:25.657Z,102145.38
2022-08-29T08:32:55.545Z,102148.03
2022-08-29T08:35:25.897Z,102138.97
2022-08-29T08:37:53.865Z,102131.78
2022-08-29T08:40:28.104Z,102185.19
2022-08-29T08:43:00.473Z,102285.59
2022-08-29T08:45:34.439Z,102333.75
2022-08-29T08:48:06.169Z,102342.38
2022-08-29T08:50:43.405Z,102349.50
2022-08-29T08:53:17.112Z,102335.81
2022-08-29T08:55:48.626Z,102328.47
2022-08-29T08:58:33.078Z,102295.94
2022-08-29T09:01:04.768Z,102313.22
2022-08-29T09:04:04.455Z,102331.78
2022-08-29T09:07:07.405Z,102329.25
2022-08-29T09:09:45.979Z,102334.59
2022-08-29T09:12:32.476Z,102334.38
2022-08-29T09:15:08.124Z,102386.88
2022-08-29T09:17:46.216Z,102385.06
2022-08-29T09:20:17.742Z,102366.13
2022-08-29T09:22:59.755Z,102376.34
2022-08-29T09:25:30.226Z,102358.72
2022-08-29T09:28:01.825Z,102341.47
2022-08-29T09:30:33.468Z,102301.63
2022-08-29T09:33:03.905Z,102331.03
2022-08-29T09:35:39.646Z,102290.63
2022-08-29T09:38:11.512Z,102291.00
2022-08-29T09:40:51.449Z,102278.31
2022-08-29T09:43:25.022Z,102231.22
2022-08-29T09:46:16.291Z,102190.88
2022-08-29T09:48:47.320Z,102195.91
2022-08-29T09:51:24.461Z,102193.75
2022-08-29T09:53:55.323Z,102138.88
2022-08-29T09:56:26.496Z,102134.22
2022-08-29T09:59:16.175Z,102112.41
2022-08-29T10:01:44.455Z,102120.66
2022-08-29T10:04:12.414Z,102098.19
2022-08-29T10:06:46.079Z,102065.19
2022-08-29T10:09:27.363Z,102063.34
2022-08-29T10:12:00.599Z,102052.81
2022-08-29T10:14:34.734Z,102048.41
2022-08-29T10:17:21.956Z,102014.97
2022-08-29T10:19:50.684Z,102013.88
2022-08-29T10:22:30.012Z,101998.78
2022-08-29T10:25:06.279Z,102026.00
2022-08-29T10:27:43.720Z,102000.91
2022-08-29T10:30:17.347Z,101998.56
2022-08-29T10:33:09.436Z,101992.50
2022-08-29T10:35:41.644Z,101999.13
2022-08-29T10:38:29.844Z,102003.41
2022-08-29T10:41:06.086Z,102014.13
2022-08-29T10:43:40.081Z,102019.25
2022-08-29T10:46:26.356Z,102022.81
2022-08-29T10:49:03.064Z,102001.44
2022-08-29T10:51:47.621Z,102003.94
2022-08-29T10:54:42.472Z,101987.63
2022-08-29T10:57:12.301Z,101968.06
2022-08-29T10:59:57.314Z,101983.09
2022-08-29T11:02:34.928Z,101982.13
2022-08-29T11:05:08.541Z,101968.38
2022-08-29T11:07:45.197Z,101981.16
2022-08-29T11:10:18.036Z,101993.56
2022-08-29T11:12:53.028Z,102026.88
2022-08-29T11:15:27.988Z,102019.75
2022-08-29T11:18:06.731Z,102004.59
2022-08-29T11:20:39.480Z,102004.78
2022-08-29T11:23:12.693Z,102022.31
2022-08-29T11:25:41.949Z,101997.31
2022-08-29T11:28:21.792Z,102014.19
2022-08-29T11:30:58.414Z,101997.31
2022-08-29T11:33:40.284Z,101961.94
2022-08-29T11:36:25.437Z,101977.44
2022-08-29T11:39:31.171Z,101960.72
2022-08-29T11:42:05.138Z,101975.41
2022-08-29T11:44:36.475Z,101930.78
2022-08-29T11:47:40.378Z,101970.50
2022-08-29T11:50:29.264Z,101994.78
2022-08-29T11:53:00.944Z,102009.81
2022-08-29T11:55:33.682Z,101979.72
2022-08-29T11:58:08.820Z,102001.94
2022-08-29T12:00:46.625Z,101997.09
2022-08-29T12:03:56.675Z,101968.38
2022-08-29T12:06:53.608Z,101952.44
2022-08-29T12:09:45.368Z,101981.84
2022-08-29T12:12:38.343Z,102019.41
2022-08-29T12:15:46.048Z,102000.38
2022-08-29T12:18:52.183Z,101959.00
2022-08-29T12:21:44.653Z,101929.44
2022-08-29T12:24:50.892Z,101973.53
2022-08-29T12:28:03.201Z,101967.66
2022-08-29T12:31:11.357Z,102034.81
2022-08-29T12:33:55.081Z,102004.75
2022-08-29T12:36:35.424Z,102033.31
2022-08-29T12:39:19.701Z,101976.22
2022-08-29T12:55:28.768Z,101902.81
2022-08-29T12:58:03.159Z,101893.47
2022-08-29T13:00:35.770Z,101892.94
2022-08-29T13:03:15.362Z,101856.75
2022-08-29T13:05:44.374Z,101867.59
2022-08-29T13:08:28.387Z,101879.69
2022-08-29T13:11:05.832Z,101883.88
2022-08-29T13:13:34.128Z,101851.31
2022-08-29T13:16:04.748Z,101837.84
2022-08-29T13:18:44.596Z,101831.84
2022-08-29T13:21:26.122Z,101822.69
2022-08-29T13:24:06.250Z,101841.56
2022-08-29T13:26:39.464Z,101844.41
2022-08-29T13:29:27.680Z,101822.94
2022-08-29T13:32:19.457Z,101833.06
2022-08-29T13:35:06.352Z,101843.44
2022-08-29T13:37:37.356Z,101798.78
2022-08-29T13:40:47.135Z,101786.09
2022-08-29T13:43:44.933Z,101793.84
2022-08-29T13:46:19.639Z,101794.94
2022-08-29T13:48:49.379Z,101763.53
2022-08-29T13:51:18.784Z,101751.22
2022-08-29T13:53:49.477Z,101757.06
2022-08-29T13:56:30.108Z,101744.59
2022-08-29T13:59:03.070Z,101757.91
2022-08-29T14:05:46.180Z,101740.50
2022-08-29T14:08:17.149Z,101752.50
2022-08-29T14:10:45.762Z,101749.38
2022-08-29T14:13:15.589Z,101753.34
2022-08-29T14:15:45.786Z,101735.56
2022-08-29T14:18:13.934Z,101739.50
2022-08-29T14:20:43.042Z,101743.53
2022-08-29T14:23:11.856Z,101760.13
2022-08-29T14:25:50.441Z,101751.16
2022-08-29T14:28:18.452Z,101749.25
2022-08-29T14:30:52.111Z,101745.47
2022-08-29T14:33:20.454Z,101742.94
2022-08-29T14:35:48.567Z,101744.44
2022-08-29T14:38:17.295Z,101747.78
2022-08-29T14:40:45.527Z,101731.31
2022-08-29T14:43:13.706Z,101738.56
2022-08-29T14:45:41.866Z,101731.22
2022-08-29T14:48:11.416Z,101725.00
2022-08-29T14:50:39.760Z,101740.59
2022-08-29T14:53:07.886Z,101742.56
2022-08-29T14:55:38.713Z,101733.88
2022-08-29T14:58:06.741Z,101730.06
2022-08-29T15:00:35.112Z,101732.66
2022-08-29T15:03:03.346Z,101715.06
2022-08-29T15:05:34.035Z,101720.00
2022-08-29T15:08:06.507Z,101717.03
2022-08-29T15:10:34.942Z,101713.16
2022-08-29T15:13:03.979Z,101722.56
2022-08-29T15:19:09.435Z,101713.56
2022-08-29T15:21:18.432Z,101719.41
2022-08-29T15:23:50.053Z,101705.41
2022-08-29T15:26:19.527Z,101685.94
2022-08-29T15:28:48.112Z,101681.03
2022-08-29T15:31:16.576Z,101703.19
2022-08-29T15:33:46.851Z,101702.84
2022-08-29T15:36:18.034Z,101688.31
2022-08-29T15:38:47.992Z,101716.97
2022-08-29T15:41:16.392Z,101710.59
2022-08-29T15:43:44.531Z,101702.41
2022-08-29T15:46:14.027Z,101711.16
2022-08-29T15:48:42.667Z,101709.88
2022-08-29T15:51:10.735Z,101708.34
2022-08-29T15:53:44.708Z,101694.88
2022-08-29T15:56:13.013Z,101714.91
2022-08-29T15:58:42.852Z,101712.41
2022-08-29T16:01:12.388Z,101711.00
2022-08-29T16:03:42.989Z,101724.44
2022-08-29T16:06:36.460Z,101746.56
2022-08-29T16:09:11.014Z,101743.97
2022-08-29T16:11:48.318Z,101782.94
2022-08-29T16:14:57.540Z,101774.06
2022-08-29T16:17:07.375Z,101758.09
2022-08-29T16:19:37.451Z,101761.16
2022-08-29T16:22:08.067Z,101766.13
2022-08-29T16:24:38.507Z,101757.91
2022-08-29T16:27:06.686Z,101766.13
2022-08-29T16:29:35.485Z,101775.94
2022-08-29T16:32:04.051Z,101824.91
2022-08-29T16:34:32.122Z,101830.44
2022-08-29T16:37:02.357Z,101797.56
2022-08-29T16:39:30.716Z,101787.34
2022-08-29T16:42:01.144Z,101761.13
2022-08-29T16:44:31.194Z,101761.47
2022-08-29T16:46:59.307Z,101732.50
2022-08-29T16:49:27.218Z,101734.84
2022-08-29T16:51:57.477Z,101731.66
2022-08-29T16:54:25.768Z,101731.09
2022-08-29T16:56:53.678Z,101728.22
2022-08-29T16:59:23.083Z,101724.53
2022-08-29T17:01:54.634Z,101724.06
2022-08-29T17:04:27.744Z,101717.69
2022-08-29T17:06:56.425Z,101719.81
2022-08-29T17:09:24.657Z,101813.28
2022-08-29T17:11:52.845Z,101836.84
2022-08-29T17:14:23.392Z,101874.06
2022-08-29T17:16:55.527Z,101880.94
2022-08-29T17:19:24.513Z,101875.75
2022-08-29T17:21:52.449Z,101884.25
2022-08-29T17:24:20.978Z,101891.78
2022-08-29T17:26:50.957Z,101897.69
2022-08-29T17:29:19.288Z,101941.44
2022-08-29T17:31:49.523Z,101983.53
2022-08-29T17:34:22.746Z,102011.53
2022-08-29T17:36:56.820Z,102009.38
2022-08-29T17:39:31.134Z,101990.56
2022-08-29T17:41:59.935Z,101979.19
2022-08-29T17:44:30.689Z,101963.97
2022-08-29T17:47:01.807Z,101946.69
2022-08-29T17:49:36.772Z,101988.84
2022-08-29T17:52:04.927Z,102016.34
2022-08-29T17:54:32.774Z,102076.81
2022-08-29T17:57:02.153Z,102130.44
2022-08-29T17:59:33.885Z,102155.22
2022-08-29T18:02:05.267Z,101926.66
2022-08-29T18:04:33.441Z,101711.88
2022-08-29T18:07:01.330Z,101525.59
2022-08-29T18:09:30.360Z,101478.06
2022-08-29T18:11:59.229Z,101526.88
2022-08-29T18:14:28.143Z,101640.66
2022-08-29T18:16:56.494Z,101644.56
2022-08-29T18:19:28.507Z,101654.25
2022-08-29T18:21:56.629Z,101691.03
2022-08-29T18:24:24.616Z,101701.28
2022-08-29T18:26:52.589Z,101694.03
2022-08-29T18:29:20.819Z,101704.97
2022-08-29T18:31:49.220Z,101708.22
2022-08-29T18:34:17.436Z,101707.56
2022-08-29T18:36:48.540Z,101715.25
2022-08-29T18:39:19.045Z,101726.69
2022-08-29T18:41:47.547Z,101728.66
2022-08-29T18:44:15.539Z,101720.41
2022-08-29T18:46:48.258Z,101713.06
2022-08-29T18:49:16.875Z,101723.16
2022-08-29T18:51:46.936Z,101753.34
2022-08-29T18:54:18.950Z,101751.75
2022-08-29T18:56:48.004Z,101763.03
2022-08-29T18:59:16.094Z,101767.75
2022-08-29T19:01:44.263Z,101770.81
2022-08-29T19:04:12.349Z,101781.28
2022-08-29T19:06:40.138Z,101779.91
2022-08-29T19:09:09.434Z,101785.06
2022-08-29T19:11:37.617Z,101797.34
2022-08-29T19:14:05.889Z,101799.59
2022-08-29T19:16:36.854Z,101798.00
2022-08-29T19:19:06.130Z,101808.63
2022-08-29T19:21:41.649Z,101810.75
2022-08-29T19:24:11.012Z,101818.19
2022-08-29T19:26:43.492Z,101810.38
2022-08-29T19:29:14.093Z,101818.63
2022-08-29T19:31:44.830Z,101813.88
2022-08-29T19:34:13.215Z,101818.53
2022-08-29T19:36:42.986Z,101824.69
2022-08-29T19:39:17.414Z,101819.19
2022-08-29T19:41:45.386Z,101828.16
2022-08-29T19:44:13.387Z,101828.44
2022-08-29T19:46:46.067Z,101822.34
2022-08-29T19:49:17.185Z,101829.19
2022-08-29T19:51:45.167Z,101822.16
2022-08-29T19:54:13.431Z,101832.31
2022-08-29T19:56:46.827Z,101897.53
2022-08-29T19:59:15.954Z,101907.38
2022-08-29T20:01:44.980Z,101898.03
2022-08-29T20:04:14.655Z,101898.41
2022-08-29T20:06:42.528Z,101901.94
2022-08-29T20:09:12.302Z,101905.50
2022-08-29T20:11:43.443Z,101900.22
2022-08-29T20:14:14.231Z,101911.56
2022-08-29T20:16:42.871Z,101907.44
2022-08-29T20:19:12.268Z,101901.47
2022-08-29T20:21:40.909Z,101901.34
2022-08-29T20:24:10.364Z,101918.25
2022-08-29T20:26:44.426Z,101915.53
2022-08-29T20:29:16.552Z,101908.44
2022-08-29T20:31:48.176Z,101908.38
2022-08-29T20:34:17.162Z,101893.75
2022-08-29T20:37:05.162Z,101910.38
2022-08-29T20:39:34.440Z,101902.22
2022-08-29T20:42:07.724Z,101897.88
2022-08-29T20:44:39.147Z,101903.22
2022-08-29T20:47:08.417Z,101897.13
2022-08-29T20:49:43.937Z,101899.00
2022-08-29T20:52:15.303Z,101893.81
2022-08-29T20:54:46.069Z,101896.25
2022-08-29T20:57:15.738Z,101899.19
2022-08-29T20:59:45.164Z,101900.13
2022-08-29T21:02:14.001Z,101901.19
2022-08-29T21:05:05.609Z,101907.53
2022-08-29T21:07:33.738Z,101904.25
2022-08-29T21:10:02.065Z,101902.53
2022-08-29T21:12:30.369Z,101904.38
2022-08-29T21:14:59.793Z,101893.94
2022-08-29T21:17:28.898Z,101897.09
2022-08-29T21:19:56.937Z,101868.91
2022-08-29T21:22:26.889Z,101866.72
2022-08-29T21:24:56.384Z,101853.47
2022-08-29T21:27:26.977Z,101840.25
2022-08-29T21:29:56.501Z,101826.25
2022-08-29T21:32:26.079Z,101823.91
2022-08-29T21:34:53.993Z,101816.88
2022-08-29T21:37:22.134Z,101807.31
2022-08-29T21:39:50.013Z,101812.53
2022-08-29T21:42:18.429Z,101819.69
2022-08-29T21:44:46.367Z,101809.00
2022-08-29T21:47:17.720Z,101808.25
2022-08-29T21:49:51.736Z,101864.81
2022-08-29T21:52:19.989Z,101853.59
2022-08-29T21:54:50.162Z,101849.31
2022-08-29T21:57:42.163Z,101844.13
2022-08-29T22:00:11.894Z,101837.56
2022-08-29T22:02:40.260Z,101834.28
2022-08-29T22:05:09.844Z,101826.72
2022-08-29T22:07:40.717Z,101798.91
2022-08-29T22:10:12.943Z,101805.75
2022-08-29T22:12:41.229Z,101801.91
2022-08-29T22:15:27.757Z,101798.03
2022-08-29T22:17:55.749Z,101784.13
2022-08-29T22:20:28.379Z,101793.31
2022-08-29T22:22:57.404Z,101784.78
2022-08-29T22:25:25.675Z,101793.44
2022-08-29T22:27:53.966Z,101782.88
2022-08-29T22:30:22.132Z,101802.16
2022-08-29T22:33:00.340Z,101810.97
2022-08-29T22:35:31.302Z,101818.06
2022-08-29T22:37:59.608Z,101806.78
2022-08-29T22:40:27.863Z,101810.91
2022-08-29T22:42:57.626Z,101808.16
2022-08-29T22:45:26.630Z,101820.16
2022-08-29T22:47:54.836Z,101806.50
2022-08-29T22:50:28.383Z,101810.97
2022-08-29T22:52:59.764Z,101824.63
2022-08-29T22:57:57.890Z,101825.00
2022-08-29T23:00:30.606Z,101815.19
2022-08-29T23:02:58.596Z,101805.91
2022-08-29T23:05:27.678Z,101826.97
2022-08-29T23:07:57.155Z,101820.66
2022-08-29T23:10:25.090Z,101822.84
2022-08-29T23:12:53.015Z,101819.56
2022-08-29T23:15:21.047Z,101825.09
2022-08-29T23:17:49.036Z,101831.34
2022-08-29T23:20:19.413Z,101824.16
2022-08-29T23:22:48.649Z,101830.66
2022-08-29T23:25:18.391Z,101826.13
2022-08-29T23:27:46.277Z,101828.53
2022-08-29T23:30:15.669Z,101832.25
2022-08-29T23:32:43.878Z,101838.63
2022-08-29T23:35:12.284Z,101835.72
2022-08-29T23:37:40.413Z,101841.69
2022-08-29T23:40:09.616Z,101835.66
2022-08-29T23:42:38.946Z,101842.25
2022-08-29T23:45:08.184Z,101834.94
2022-08-29T23:47:36.141Z,101823.06
2022-08-29T23:50:04.750Z,101803.44
2022-08-29T23:52:32.775Z,101811.88
2022-08-29T23:55:01.548Z,101816.34
2022-08-29T23:57:29.484Z,101816.66
